Time;durP1;ratioP1;P1;durP2;ratioP2;P2;SDS_P1;SDS_P2;PMS_P1;PMS_P2;Temp;Humidity;BMP_temperature;BMP_pressure;BME280_temperature;BME280_humidity;BME280_pressure;Samples;Min_cycle;Max_cycle;Signal;HPM_P1;HPM_P2
2023/10/11 00:01:27;;;;;;;9.15;3.78;;;;;;;15.02;100.00;101336.56;4994136;23;20065;-96
2023/10/11 00:04:23;;;;;;;9.48;3.50;;;;;;;15.18;100.00;101360.78;4957773;29;20106;-96
2023/10/11 00:07:06;;;;;;;11.20;4.00;;;;;;;15.14;100.00;101355.94;4962799;29;20035;-95
2023/10/11 00:09:35;;;;;;;7.28;3.60;;;;;;;15.07;100.00;101354.63;4964112;28;20054;-94
2023/10/11 00:12:04;;;;;;;10.40;3.60;;;;;;;15.18;100.00;101372.38;4943122;28;20046;-96
2023/10/11 00:14:31;;;;;;;8.52;3.83;;;;;;;15.12;100.00;101368.91;4944082;29;20493;-96
2023/10/11 00:16:57;;;;;;;7.60;4.10;;;;;;;14.99;100.00;101339.81;4943502;29;20070;-95
2023/10/11 00:19:28;;;;;;;12.13;4.00;;;;;;;15.07;100.00;101351.91;4944078;29;20243;-96
2023/10/11 00:22:45;;;;;;;7.32;3.75;;;;;;;14.90;100.00;101333.34;4945166;29;20160;-95
2023/10/11 00:25:26;;;;;;;8.63;3.70;;;;;;;14.94;100.00;101348.72;4924521;29;20378;-95
2023/10/11 00:27:52;;;;;;;8.85;3.58;;;;;;;15.08;100.00;101367.03;4928460;29;20039;-96
2023/10/11 00:34:33;;;;;;;6.55;3.72;;;;;;;15.15;100.00;101364.84;4925190;29;20095;-96
2023/10/11 00:45:46;;;;;;;5.47;3.53;;;;;;;14.83;100.00;101322.84;4960335;29;20034;-96
2023/10/11 00:48:13;;;;;;;6.68;3.78;;;;;;;14.87;100.00;101323.13;4926213;29;20180;-96
2023/10/11 00:54:21;;;;;;;7.78;4.10;;;;;;;14.91;100.00;101330.38;4928308;29;20055;-96
2023/10/11 00:57:27;;;;;;;9.63;3.85;;;;;;;14.84;100.00;101321.75;4928608;29;20086;-95
2023/10/11 01:05:22;;;;;;;11.70;4.00;;;;;;;14.70;100.00;101321.53;4960289;29;20290;-93
2023/10/11 01:07:50;;;;;;;7.30;3.90;;;;;;;14.88;100.00;101349.81;4958405;29;20031;-96
2023/10/11 01:10:17;;;;;;;8.48;4.10;;;;;;;14.67;100.00;101330.16;4957651;28;20130;-94
2023/10/11 01:12:42;;;;;;;9.93;4.40;;;;;;;14.64;100.00;101336.88;4957896;29;20050;-95
2023/10/11 01:15:11;;;;;;;8.57;4.20;;;;;;;14.57;100.00;101316.66;4958061;28;20031;-95
2023/10/11 01:18:02;;;;;;;7.38;4.30;;;;;;;14.77;100.00;101332.06;4937737;29;20027;-94
2023/10/11 01:20:47;;;;;;;6.82;3.90;;;;;;;14.73;100.00;101349.84;5002634;23;20013;-94
2023/10/11 01:23:12;;;;;;;9.25;3.75;;;;;;;14.48;100.00;101319.94;4958710;29;20174;-93
2023/10/11 01:26:23;;;;;;;10.10;3.73;;;;;;;14.58;100.00;101339.88;4958244;29;20071;-94
2023/10/11 01:28:49;;;;;;;6.55;4.00;;;;;;;14.32;100.00;101319.13;4860793;29;20068;-95
2023/10/11 01:46:54;;;;;;;10.00;4.10;;;;;;;14.13;100.00;101301.91;5301289;23;20054;-95
2023/10/11 01:49:39;;;;;;;9.23;4.33;;;;;;;14.02;100.00;101287.63;4976532;28;20022;-94
2023/10/11 01:55:26;;;;;;;8.15;3.85;;;;;;;13.97;100.00;101290.34;4918657;29;20144;-96
2023/10/11 01:57:52;;;;;;;9.27;3.93;;;;;;;14.19;100.00;101325.09;4964676;28;20031;-96
2023/10/11 02:02:55;;;;;;;11.77;4.25;;;;;;;14.13;100.00;101316.19;5023435;23;20054;-95
2023/10/11 02:16:15;;;;;;;10.43;4.85;;;;;;;13.92;100.00;101288.41;5619528;23;20058;-95
2023/10/11 02:18:42;;;;;;;10.32;3.78;;;;;;;13.95;100.00;101287.88;4975980;28;20399;-95
2023/10/11 02:21:07;;;;;;;10.57;4.20;;;;;;;13.93;100.00;101282.78;4945768;28;20031;-96
2023/10/11 02:23:39;;;;;;;9.57;4.43;;;;;;;13.95;100.00;101282.50;4937333;29;20355;-96
2023/10/11 02:26:12;;;;;;;10.45;4.13;;;;;;;13.77;100.00;101252.31;5188340;23;20463;-96
2023/10/11 02:28:40;;;;;;;10.03;4.30;;;;;;;13.87;100.00;101272.28;4958170;28;20027;-96
2023/10/11 02:31:07;;;;;;;8.57;4.30;;;;;;;13.84;100.00;101270.13;4958263;28;20279;-96
2023/10/11 02:33:33;;;;;;;10.43;4.35;;;;;;;13.85;100.00;101271.72;4955454;29;20063;-96
2023/10/11 02:36:09;;;;;;;10.77;4.88;;;;;;;13.91;100.00;101282.25;4955843;28;20419;-96
2023/10/11 02:38:39;;;;;;;11.45;4.93;;;;;;;13.91;100.00;101279.53;4936785;29;20051;-96
2023/10/11 02:41:05;;;;;;;11.13;4.50;;;;;;;13.90;100.00;101279.78;4936860;29;20031;-96
2023/10/11 02:43:33;;;;;;;9.60;4.63;;;;;;;13.85;100.00;101283.31;4937247;29;20051;-95
2023/10/11 02:45:59;;;;;;;10.80;5.18;;;;;;;13.83;100.00;101285.44;4936924;29;20027;-96
2023/10/11 02:48:27;;;;;;;9.43;4.32;;;;;;;13.80;100.00;101290.56;4954488;29;20701;-95
2023/10/11 02:50:57;;;;;;;11.15;4.47;;;;;;;13.79;100.00;101281.66;5030735;23;20460;-96
2023/10/11 03:03:07;;;;;;;9.93;4.13;;;;;;;13.57;100.00;101271.16;4934982;29;20813;-96
2023/10/11 03:05:37;;;;;;;10.23;4.88;;;;;;;13.41;100.00;101259.56;4938049;29;20028;-96
2023/10/11 03:08:21;;;;;;;9.10;4.28;;;;;;;13.28;100.00;101240.13;4923109;29;20051;-95
2023/10/11 03:18:32;;;;;;;9.85;5.07;;;;;;;13.47;100.00;101262.00;4952327;29;20055;-94
2023/10/11 03:21:09;;;;;;;12.73;4.80;;;;;;;13.42;100.00;101250.41;5390633;23;20054;-94
2023/10/11 03:23:44;;;;;;;14.07;5.07;;;;;;;13.36;100.00;101238.78;4967030;29;20282;-94
2023/10/11 03:26:18;;;;;;;12.15;5.13;;;;;;;13.38;100.00;101250.09;4967268;28;20023;-93
2023/10/11 03:28:45;;;;;;;10.82;4.97;;;;;;;13.37;100.00;101256.53;4922911;29;20083;-94
2023/10/11 03:31:12;;;;;;;11.30;5.03;;;;;;;13.34;100.00;101257.06;4939021;29;20059;-95
2023/10/11 03:33:40;;;;;;;11.90;4.90;;;;;;;13.33;100.00;101266.22;4938787;29;20027;-93
2023/10/11 03:36:17;;;;;;;8.88;5.30;;;;;;;13.25;100.00;101247.91;4936880;29;20467;-95
2023/10/11 03:38:45;;;;;;;11.68;5.03;;;;;;;13.17;100.00;101244.66;4938222;29;20027;-94
2023/10/11 03:41:28;;;;;;;12.38;5.30;;;;;;;13.15;100.00;101254.88;4938704;29;20519;-95
2023/10/11 03:44:02;;;;;;;12.93;5.60;;;;;;;13.06;100.00;101247.56;4946330;29;20027;-95
2023/10/11 03:46:28;;;;;;;12.73;5.30;;;;;;;13.10;100.00;101251.38;4945120;29;20291;-95
2023/10/11 03:49:03;;;;;;;10.35;5.28;;;;;;;13.07;100.00;101252.72;4953819;28;20041;-94
2023/10/11 03:51:29;;;;;;;13.40;5.15;;;;;;;13.00;100.00;101252.13;4945456;29;20033;-95
2023/10/11 03:53:54;;;;;;;10.25;5.65;;;;;;;13.02;100.00;101261.59;4951634;29;20043;-94
2023/10/11 03:56:20;;;;;;;10.73;5.37;;;;;;;13.00;100.00;101242.19;4955542;29;20510;-94
2023/10/11 03:58:45;;;;;;;13.02;6.60;;;;;;;13.01;100.00;101240.31;4956476;29;20046;-95
2023/10/11 04:03:38;;;;;;;10.17;5.37;;;;;;;13.00;100.00;101246.75;4937020;29;20042;-94
2023/10/11 04:06:13;;;;;;;13.23;5.57;;;;;;;12.88;100.00;101237.03;4936797;29;20043;-95
2023/10/11 04:08:41;;;;;;;19.80;5.95;;;;;;;12.93;100.00;101240.84;4949678;29;20028;-94
2023/10/11 04:11:14;;;;;;;9.60;6.07;;;;;;;12.85;100.00;101239.47;4950948;29;20059;-94
2023/10/11 04:13:45;;;;;;;8.63;5.25;;;;;;;12.80;100.00;101236.75;4976567;28;20028;-94
2023/10/11 04:16:10;;;;;;;14.87;6.00;;;;;;;12.83;100.00;101244.28;4962656;29;20055;-95
2023/10/11 04:18:37;;;;;;;10.03;5.50;;;;;;;12.71;100.00;101223.00;4954912;29;20291;-95
2023/10/11 04:21:16;;;;;;;8.82;5.38;;;;;;;12.73;100.00;101221.66;4993817;23;20063;-94
2023/10/11 04:23:45;;;;;;;10.73;5.95;;;;;;;12.72;100.00;101219.22;4954289;28;20047;-94
2023/10/11 04:29:19;;;;;;;9.07;5.80;;;;;;;12.75;100.00;101213.34;4919476;28;20067;-94
2023/10/11 04:34:38;;;;;;;13.02;5.90;;;;;;;12.82;100.00;101218.47;4957631;29;20064;-94
2023/10/11 04:37:07;;;;;;;10.50;5.72;;;;;;;12.81;100.00;101214.94;4944638;29;20025;-95
2023/10/11 04:39:49;;;;;;;13.40;5.90;;;;;;;12.82;100.00;101223.84;4944696;29;20060;-95
2023/10/11 04:45:46;;;;;;;11.68;6.00;;;;;;;12.75;100.00;101229.47;5807805;23;20055;-95
2023/10/11 04:51:38;;;;;;;10.80;5.40;;;;;;;12.77;100.00;101223.81;5002836;23;20044;-96
2023/10/11 05:09:39;;;;;;;12.10;6.20;;;;;;;12.50;100.00;101208.66;5729587;23;20035;-96
2023/10/11 05:12:28;;;;;;;11.70;5.90;;;;;;;12.45;100.00;101201.34;4980107;28;20023;-94
2023/10/11 05:15:07;;;;;;;10.67;6.37;;;;;;;12.52;100.00;101201.94;4951275;29;20454;-96
2023/10/11 05:17:38;;;;;;;11.63;5.80;;;;;;;12.56;100.00;101213.78;4970787;28;20016;-96
2023/10/11 05:28:07;;;;;;;12.85;6.20;;;;;;;12.70;100.00;101245.56;4939093;29;20055;-95
2023/10/11 05:52:13;;;;;;;12.50;7.10;;;;;;;12.71;100.00;101253.38;5569012;23;20059;-91
2023/10/11 05:54:42;;;;;;;13.80;6.60;;;;;;;12.67;100.00;101254.16;4954872;28;20038;-91
2023/10/11 05:57:07;;;;;;;13.67;6.73;;;;;;;12.70;100.00;101254.44;4964953;28;20565;-90
2023/10/11 05:59:37;;;;;;;12.60;6.93;;;;;;;12.75;100.00;101259.03;4956376;28;20129;-91
2023/10/11 06:02:18;;;;;;;13.00;7.03;;;;;;;12.82;100.00;101261.50;4953037;29;20034;-91
2023/10/11 06:04:45;;;;;;;12.05;6.88;;;;;;;12.83;100.00;101255.84;4946435;29;20055;-90
2023/10/11 06:07:16;;;;;;;14.37;7.10;;;;;;;12.88;100.00;101266.63;4962315;29;20038;-90
2023/10/11 06:09:52;;;;;;;14.63;6.65;;;;;;;12.91;100.00;101264.50;4938319;29;20035;-85
2023/10/11 06:12:29;;;;;;;13.15;7.20;;;;;;;12.92;100.00;101255.34;4935100;29;20373;-84
2023/10/11 06:14:56;;;;;;;26.15;7.47;;;;;;;12.92;100.00;101256.16;4946852;29;20121;-84
2023/10/11 06:17:32;;;;;;;14.95;7.28;;;;;;;12.96;100.00;101251.06;4953855;28;20479;-84
2023/10/11 06:22:33;;;;;;;12.88;7.10;;;;;;;12.96;100.00;101229.56;5059891;23;20292;-84
2023/10/11 06:24:59;;;;;;;13.93;7.00;;;;;;;13.06;100.00;101248.41;4951854;29;20027;-84
2023/10/11 06:30:10;;;;;;;12.90;7.10;;;;;;;13.12;100.00;101243.84;4952317;28;20157;-85
2023/10/11 06:32:36;;;;;;;16.17;7.18;;;;;;;13.13;100.00;101237.38;4963317;29;20024;-85
2023/10/11 06:35:05;;;;;;;13.47;7.07;;;;;;;13.16;100.00;101243.03;4941092;29;20035;-85
2023/10/11 06:37:34;;;;;;;12.93;7.03;;;;;;;13.23;100.00;101244.69;4917065;29;20082;-86
2023/10/11 06:42:31;;;;;;;20.00;7.27;;;;;;;13.27;100.00;101254.63;4937517;29;20122;-85
2023/10/11 06:45:01;;;;;;;14.75;8.35;;;;;;;13.28;100.00;101242.81;4928856;29;20024;-88
2023/10/11 06:47:37;;;;;;;14.77;7.47;;;;;;;13.39;100.00;101254.41;4930344;29;20035;-87
2023/10/11 06:50:14;;;;;;;13.55;7.60;;;;;;;13.23;100.00;101220.47;5316015;23;20403;-85
2023/10/11 06:52:47;;;;;;;10.98;7.20;;;;;;;13.55;100.00;101255.28;4952927;29;20031;-87
2023/10/11 06:55:18;;;;;;;12.52;7.18;;;;;;;13.67;100.00;101259.59;4953098;29;20032;-86
2023/10/11 06:57:45;;;;;;;15.60;7.63;;;;;;;13.67;100.00;101265.81;4934506;29;20078;-85
2023/10/11 07:03:21;;;;;;;15.73;7.10;;;;;;;13.61;100.00;101238.03;5868965;23;20054;-86
2023/10/11 07:05:48;;;;;;;15.63;6.90;;;;;;;13.93;100.00;101265.78;4950187;28;20027;-86
2023/10/11 07:08:18;;;;;;;14.65;7.05;;;;;;;14.02;100.00;101274.13;4948502;29;20095;-86
2023/10/11 07:11:00;;;;;;;13.93;6.60;;;;;;;14.06;100.00;101276.03;4950925;29;20031;-86
2023/10/11 07:13:29;;;;;;;15.90;7.35;;;;;;;14.10;100.00;101270.91;4945119;29;20024;-86
2023/10/11 07:15:57;;;;;;;15.03;6.93;;;;;;;14.21;100.00;101272.50;4934969;29;20039;-88
2023/10/11 07:18:25;;;;;;;16.27;6.97;;;;;;;14.40;100.00;101288.13;4937055;29;20790;-88
2023/10/11 07:20:58;;;;;;;13.23;6.55;;;;;;;14.49;100.00;101299.97;4936710;29;20192;-88
2023/10/11 07:23:34;;;;;;;14.40;7.20;;;;;;;14.61;100.00;101305.06;4937335;29;20038;-87
2023/10/11 07:26:22;;;;;;;10.38;6.65;;;;;;;14.69;100.00;101303.75;4943087;29;20036;-87
2023/10/11 07:28:50;;;;;;;14.02;7.22;;;;;;;14.82;100.00;101319.34;4937841;29;20115;-85
2023/10/11 07:31:16;;;;;;;14.00;7.28;;;;;;;14.92;100.00;101321.22;4933656;29;20083;-86
2023/10/11 07:33:42;;;;;;;13.77;6.72;;;;;;;15.02;100.00;101322.25;4935179;29;20051;-86
2023/10/11 07:36:11;;;;;;;14.17;7.10;;;;;;;15.09;100.00;101326.25;4936962;29;20417;-86
2023/10/11 07:38:43;;;;;;;13.70;7.32;;;;;;;15.22;100.00;101322.16;4934688;29;20480;-87
2023/10/11 07:41:17;;;;;;;11.52;6.03;;;;;;;15.36;100.00;101325.06;4939537;29;20606;-87
2023/10/11 07:43:45;;;;;;;14.93;6.57;;;;;;;15.51;100.00;101323.38;4934179;29;20024;-87
2023/10/11 07:46:10;;;;;;;13.57;7.65;;;;;;;15.67;100.00;101332.19;4934008;29;20122;-87
2023/10/11 07:48:36;;;;;;;16.70;7.33;;;;;;;15.77;100.00;101324.00;4936536;29;20054;-86
2023/10/11 07:51:09;;;;;;;12.73;6.50;;;;;;;15.88;100.00;101325.59;4931760;29;20028;-85
2023/10/11 07:53:40;;;;;;;12.43;7.03;;;;;;;16.01;100.00;101318.72;4934613;29;20040;-87
2023/10/11 07:56:05;;;;;;;17.65;7.10;;;;;;;15.99;100.00;101299.28;4937761;29;20349;-87
2023/10/11 07:58:34;;;;;;;14.87;7.40;;;;;;;16.18;100.00;101312.91;4950608;28;20042;-87
2023/10/11 08:01:44;;;;;;;14.27;7.10;;;;;;;16.33;100.00;101324.69;4947613;29;20091;-86
2023/10/11 08:03:52;;;;;;;15.82;7.60;;;;;;;16.46;100.00;101318.59;4924952;29;20134;-88
2023/10/11 08:06:24;;;;;;;13.13;6.93;;;;;;;16.64;100.00;101318.97;4921481;29;20031;-89
2023/10/11 08:12:27;;;;;;;17.27;7.53;;;;;;;16.84;100.00;101295.47;4927750;29;20047;-88
2023/10/11 08:22:35;;;;;;;14.23;6.75;;;;;;;17.08;100.00;101319.84;4855481;29;20072;-89
2023/10/11 08:25:01;;;;;;;12.15;7.00;;;;;;;16.77;100.00;101301.25;4913130;29;20029;-87
2023/10/11 08:27:29;;;;;;;19.33;7.70;;;;;;;16.82;100.00;101336.38;4914739;29;20028;-88
2023/10/11 08:30:06;;;;;;;13.17;6.97;;;;;;;16.67;100.00;101321.09;4915773;29;20044;-89
2023/10/11 08:32:42;;;;;;;13.97;7.10;;;;;;;16.69;100.00;101327.03;4918292;29;20680;-88
2023/10/11 08:35:16;;;;;;;15.75;6.97;;;;;;;16.67;100.00;101339.25;4921690;29;20032;-88
2023/10/11 09:03:45;;;;;;;14.32;7.50;;;;;;;17.90;100.00;101328.72;5576595;23;20051;-88
2023/10/11 09:15:00;;;;;;;11.60;7.23;;;;;;;18.95;100.00;101350.31;6075090;23;20257;-88
2023/10/11 09:25:21;;;;;;;13.10;7.97;;;;;;;19.20;100.00;101327.25;5593121;23;20439;-88
2023/10/11 09:27:49;;;;;;;18.33;9.10;;;;;;;19.30;100.00;101346.03;4956157;29;20046;-90
2023/10/11 09:30:20;;;;;;;16.27;9.93;;;;;;;19.31;100.00;101344.13;4952586;29;20027;-88
2023/10/11 09:32:49;;;;;;;18.10;9.32;;;;;;;19.35;100.00;101356.00;4925714;29;20038;-90
2023/10/11 09:35:23;;;;;;;17.08;9.80;;;;;;;19.31;100.00;101355.00;4941553;28;20070;-89
2023/10/11 09:37:49;;;;;;;14.30;10.27;;;;;;;19.22;100.00;101354.91;5151956;23;20058;-89
2023/10/11 09:40:17;;;;;;;20.83;12.00;;;;;;;19.13;100.00;101371.13;4953027;28;20026;-90
2023/10/11 09:42:43;;;;;;;17.63;10.17;;;;;;;19.12;100.00;101369.50;4953822;29;20077;-89
2023/10/11 09:45:16;;;;;;;18.20;10.70;;;;;;;19.08;100.00;101384.00;4937443;28;20341;-88
2023/10/11 10:00:52;;;;;;;19.47;10.70;;;;;;;19.34;100.00;101384.28;4974500;28;20348;-93
2023/10/11 10:03:17;;;;;;;21.80;11.80;;;;;;;19.29;100.00;101362.66;4986377;28;20174;-90
2023/10/11 10:06:18;;;;;;;21.60;12.25;;;;;;;19.33;100.00;101374.53;4978907;28;20498;-96
2023/10/11 10:08:47;;;;;;;16.10;11.53;;;;;;;19.27;100.00;101381.16;4989060;23;20567;-95
2023/10/11 10:11:13;;;;;;;21.60;12.40;;;;;;;19.24;100.00;101387.19;4961613;29;20352;-92
2023/10/11 10:14:22;;;;;;;23.90;13.32;;;;;;;19.25;100.00;101386.09;4959064;28;20035;-91
2023/10/11 10:17:11;;;;;;;23.85;13.25;;;;;;;19.23;100.00;101391.84;4965908;28;20046;-89
2023/10/11 10:19:40;;;;;;;20.65;12.63;;;;;;;19.01;100.00;101397.97;4921173;29;20116;-88
2023/10/11 10:22:27;;;;;;;21.37;13.60;;;;;;;18.94;100.00;101397.53;4933928;29;20123;-88
2023/10/11 10:24:56;;;;;;;25.17;14.23;;;;;;;18.87;100.00;101400.66;4927924;29;20798;-91
2023/10/11 10:27:34;;;;;;;26.52;14.50;;;;;;;18.82;100.00;101385.25;4918550;29;20069;-89
2023/10/11 10:30:04;;;;;;;25.48;14.60;;;;;;;18.72;100.00;101382.72;4932005;29;20047;-91
2023/10/11 10:32:30;;;;;;;22.92;14.57;;;;;;;18.60;100.00;101381.31;4934932;29;20035;-89
2023/10/11 10:35:18;;;;;;;26.17;15.27;;;;;;;18.65;100.00;101379.59;4936192;29;20079;-89
2023/10/11 10:37:46;;;;;;;25.35;14.88;;;;;;;18.66;100.00;101390.16;4927388;29;20119;-90
2023/10/11 10:40:24;;;;;;;26.17;15.20;;;;;;;18.65;100.00;101376.88;4935759;29;20027;-89
2023/10/11 10:43:20;;;;;;;31.03;15.20;;;;;;;18.74;100.00;101375.09;4933694;29;20299;-91
2023/10/11 10:45:52;;;;;;;29.30;14.75;;;;;;;18.88;100.00;101370.47;4916603;29;20126;-90
2023/10/11 10:48:25;;;;;;;25.52;14.30;;;;;;;19.05;100.00;101375.34;4930989;29;20472;-89
2023/10/11 10:51:01;;;;;;;27.25;15.48;;;;;;;19.19;100.00;101380.75;4932882;29;20028;-89
2023/10/11 10:53:50;;;;;;;26.30;15.07;;;;;;;19.04;100.00;101379.16;4934762;29;20083;-92
2023/10/11 10:56:19;;;;;;;25.75;14.43;;;;;;;18.92;100.00;101382.34;4917972;29;20106;-89
2023/10/11 10:58:46;;;;;;;25.40;13.40;;;;;;;18.88;100.00;101386.78;4934200;29;20051;-89
2023/10/11 11:01:11;;;;;;;24.73;14.07;;;;;;;18.93;100.00;101383.13;4933256;29;20342;-89
2023/10/11 11:03:36;;;;;;;27.52;13.93;;;;;;;19.00;100.00;101375.44;4936115;29;20110;-89
2023/10/11 11:06:02;;;;;;;29.10;14.63;;;;;;;19.07;100.00;101372.31;4933996;29;20047;-90
2023/10/11 11:08:31;;;;;;;23.63;13.70;;;;;;;19.11;100.00;101378.75;4935779;29;20031;-90
2023/10/11 11:11:19;;;;;;;25.30;14.57;;;;;;;19.04;100.00;101384.59;4936387;29;20046;-88
2023/10/11 11:13:49;;;;;;;24.95;13.95;;;;;;;19.07;100.00;101383.19;4918956;29;20051;-87
2023/10/11 11:16:19;;;;;;;28.10;15.07;;;;;;;19.07;100.00;101372.31;4945189;29;20043;-90
2023/10/11 11:18:45;;;;;;;25.95;14.23;;;;;;;19.21;100.00;101373.09;4948994;29;20040;-87
2023/10/11 11:21:23;;;;;;;25.83;14.25;;;;;;;19.28;100.00;101359.13;4936744;29;20040;-87
2023/10/11 11:23:49;;;;;;;23.33;13.18;;;;;;;19.42;100.00;101356.38;4938252;29;20372;-87
2023/10/11 11:26:15;;;;;;;22.98;13.88;;;;;;;19.41;100.00;101349.34;4935610;29;20027;-88
2023/10/11 11:28:45;;;;;;;20.70;13.33;;;;;;;19.40;100.00;101342.28;4936239;29;20436;-89
2023/10/11 11:31:13;;;;;;;23.88;13.27;;;;;;;19.37;100.00;101359.19;4935446;29;20149;-89
2023/10/11 11:36:41;;;;;;;19.48;12.68;;;;;;;19.28;100.00;101323.00;4887206;29;20047;-92
2023/10/11 11:39:28;;;;;;;23.00;13.07;;;;;;;19.32;100.00;101332.16;4923328;29;20043;-90
2023/10/11 11:41:57;;;;;;;21.70;12.48;;;;;;;19.33;100.00;101333.78;4933778;29;20031;-91
2023/10/11 11:44:27;;;;;;;27.27;13.15;;;;;;;19.22;100.00;101323.09;4934219;29;20035;-90
2023/10/11 11:46:54;;;;;;;20.42;12.25;;;;;;;19.36;100.00;101312.22;4932032;29;20476;-89
2023/10/11 11:49:21;;;;;;;23.55;13.15;;;;;;;19.50;100.00;101303.22;4932853;29;20066;-87
2023/10/11 11:51:56;;;;;;;21.47;12.23;;;;;;;19.72;100.00;101298.91;4932711;29;20023;-90
2023/10/11 11:54:28;;;;;;;20.27;12.27;;;;;;;19.92;100.00;101300.34;4953704;29;20034;-89
2023/10/11 11:57:07;;;;;;;22.33;12.00;;;;;;;19.94;100.00;101301.66;4942366;29;20368;-88
2023/10/11 11:59:33;;;;;;;23.20;13.05;;;;;;;19.92;100.00;101311.22;4934709;29;20567;-88
2023/10/11 12:02:02;;;;;;;25.02;12.30;;;;;;;19.88;100.00;101313.78;4916610;29;20032;-89
2023/10/11 12:04:32;;;;;;;23.83;12.30;;;;;;;19.87;100.00;101312.16;4930773;29;20044;-86
2023/10/11 12:06:57;;;;;;;23.77;12.10;;;;;;;20.01;100.00;101293.06;4930313;29;20325;-88
2023/10/11 12:09:25;;;;;;;22.23;12.23;;;;;;;20.13;100.00;101282.41;4934057;29;20543;-88
2023/10/11 12:11:53;;;;;;;24.97;12.70;;;;;;;20.18;100.00;101264.34;4933529;29;20115;-88
2023/10/11 12:14:22;;;;;;;24.67;11.95;;;;;;;20.49;100.00;101267.06;4934584;29;20020;-89
2023/10/11 12:16:48;;;;;;;22.33;12.50;;;;;;;20.82;100.00;101276.78;4932796;29;20431;-91
2023/10/11 12:19:14;;;;;;;21.07;11.50;;;;;;;20.90;100.00;101265.09;4933860;29;20035;-92
2023/10/11 12:21:40;;;;;;;19.90;11.20;;;;;;;20.95;100.00;101266.88;4928637;29;20338;-92
2023/10/11 12:24:12;;;;;;;21.83;11.30;;;;;;;20.85;100.00;101267.97;4929186;29;20482;-95
2023/10/11 12:26:41;;;;;;;17.98;11.63;;;;;;;20.73;100.00;101255.75;4935293;29;20031;-95
2023/10/11 12:29:09;;;;;;;21.23;10.37;;;;;;;20.75;100.00;101258.16;4937172;29;20054;-93
2023/10/11 12:31:38;;;;;;;21.90;10.37;;;;;;;20.78;100.00;101256.75;4936140;29;20296;-92
2023/10/11 12:34:05;;;;;;;18.23;10.65;;;;;;;20.92;100.00;101267.50;4951209;29;20035;-94
2023/10/11 12:36:31;;;;;;;20.30;11.27;;;;;;;21.03;100.00;101274.28;4950287;29;20035;-93
2023/10/11 12:42:22;;;;;;;22.67;11.10;;;;;;;20.64;100.00;101271.25;5169030;23;20066;-96
2023/10/11 12:44:48;;;;;;;23.83;10.85;;;;;;;20.24;100.00;101244.06;4973012;28;20034;-93
2023/10/11 12:47:13;;;;;;;17.47;10.50;;;;;;;20.25;100.00;101257.34;4968026;28;20051;-94
2023/10/11 12:49:38;;;;;;;18.60;10.43;;;;;;;20.21;100.00;101255.56;4958195;28;20029;-94
2023/10/11 12:52:06;;;;;;;17.37;10.20;;;;;;;20.25;100.00;101259.28;4943383;28;20299;-93
2023/10/11 12:54:31;;;;;;;21.80;10.73;;;;;;;20.43;100.00;101258.25;4962326;28;20083;-95
2023/10/11 12:59:32;;;;;;;16.50;9.82;;;;;;;20.95;100.00;101264.97;5439139;23;20051;-96
2023/10/11 13:01:58;;;;;;;19.13;9.83;;;;;;;21.15;100.00;101260.03;4953745;28;20052;-95
2023/10/11 13:04:24;;;;;;;20.10;10.25;;;;;;;21.32;100.00;101264.66;4956040;29;20035;-95
2023/10/11 13:09:27;;;;;;;19.52;9.65;;;;;;;21.37;100.00;101253.59;5078347;23;20051;-95
2023/10/11 13:24:25;;;;;;;19.33;10.77;;;;;;;21.14;100.00;101242.84;4964732;28;20090;-95
2023/10/11 13:39:48;;;;;;;19.00;9.80;;;;;;;21.06;100.00;101189.19;4939073;29;20334;-93
2023/10/11 13:42:14;;;;;;;19.77;9.38;;;;;;;21.11;100.00;101218.97;4936978;29;20028;-88
2023/10/11 13:44:43;;;;;;;19.15;9.20;;;;;;;21.02;100.00;101208.06;4937230;29;20031;-89
2023/10/11 13:49:47;;;;;;;18.80;8.98;;;;;;;21.00;100.00;101201.34;5150888;23;20396;-94
2023/10/11 13:52:19;;;;;;;22.23;9.10;;;;;;;21.02;100.00;101191.72;4961973;28;20023;-90
2023/10/11 13:54:51;;;;;;;20.13;9.00;;;;;;;21.03;100.00;101198.00;4974897;29;20290;-89
2023/10/11 13:59:53;;;;;;;22.45;9.70;;;;;;;20.78;100.00;101194.13;5492063;23;20063;-89
2023/10/11 14:02:44;;;;;;;19.55;9.40;;;;;;;20.68;100.00;101190.56;4961958;29;20055;-88
2023/10/11 14:05:18;;;;;;;21.05;9.63;;;;;;;20.76;100.00;101182.75;4955355;29;20546;-87
2023/10/11 14:07:50;;;;;;;22.73;9.10;;;;;;;20.86;100.00;101176.97;4950306;29;20103;-89
2023/10/11 14:10:27;;;;;;;19.00;8.90;;;;;;;20.98;100.00;101176.34;4951775;28;20307;-88
2023/10/11 14:13:00;;;;;;;23.42;8.75;;;;;;;21.10;100.00;101175.72;4942157;29;20082;-89
2023/10/11 14:15:29;;;;;;;20.55;8.35;;;;;;;;;;4940176;29;20479;-90
2023/10/11 14:17:55;;;;;;;22.38;8.65;;;;;;;21.17;100.00;101159.69;4986853;23;20070;-90
2023/10/11 14:20:22;;;;;;;17.90;8.40;;;;;;;21.28;100.00;101157.41;4922531;29;20116;-91
2023/10/11 14:22:49;;;;;;;18.75;8.20;;;;;;;21.30;100.00;101149.72;4939997;29;20111;-90
2023/10/11 14:25:14;;;;;;;18.60;7.75;;;;;;;21.15;100.00;101142.88;4951715;29;20079;-90
2023/10/11 14:27:41;;;;;;;18.53;7.20;;;;;;;21.03;100.00;101147.03;4945663;29;20059;-90
2023/10/11 14:30:12;;;;;;;15.57;7.07;;;;;;;20.92;100.00;101143.03;4939496;29;20044;-89
2023/10/11 14:32:41;;;;;;;17.35;6.82;;;;;;;20.72;100.00;101125.41;4939272;29;20032;-89
2023/10/11 14:35:10;;;;;;;16.60;7.15;;;;;;;20.66;100.00;101140.28;4938731;29;20017;-88
2023/10/11 14:37:35;;;;;;;18.50;7.18;;;;;;;20.63;100.00;101140.91;4937519;29;20012;-86
2023/10/11 14:40:14;;;;;;;16.23;7.07;;;;;;;20.56;100.00;101125.84;4936553;29;20020;-91
2023/10/11 14:42:43;;;;;;;14.95;6.80;;;;;;;20.53;100.00;101122.97;4913730;29;20024;-89
2023/10/11 14:45:11;;;;;;;21.73;7.53;;;;;;;20.48;100.00;101118.47;5261199;23;21055;-85
2023/10/11 14:47:38;;;;;;;13.80;6.70;;;;;;;20.46;100.00;101118.00;4925210;29;20094;-88
2023/10/11 14:50:03;;;;;;;20.57;7.33;;;;;;;20.42;100.00;101108.84;4936245;29;20442;-86
2023/10/11 14:52:30;;;;;;;16.92;6.15;;;;;;;20.42;100.00;101106.94;4936526;29;20050;-86
2023/10/11 14:54:59;;;;;;;14.27;6.15;;;;;;;20.40;100.00;101101.03;4936393;29;20035;-87
2023/10/11 14:57:25;;;;;;;18.73;6.13;;;;;;;20.46;100.00;101103.56;4928422;29;20035;-87
2023/10/11 14:59:50;;;;;;;12.60;6.00;;;;;;;20.46;100.00;101101.66;4947687;28;20362;-87
2023/10/11 15:02:15;;;;;;;16.03;6.90;;;;;;;20.39;100.00;101104.03;4935119;29;20027;-87
2023/10/11 15:04:41;;;;;;;21.03;6.10;;;;;;;20.46;100.00;101109.81;4918932;29;20039;-87
2023/10/11 15:18:22;;;;;;;18.80;5.80;;;;;;;20.05;100.00;101062.88;5967886;23;20026;-87
2023/10/11 15:24:44;;;;;;;22.45;6.07;;;;;;;20.08;100.00;101081.28;4866758;29;20072;-86
2023/10/11 15:27:11;;;;;;;17.70;5.75;;;;;;;19.81;100.00;101038.78;4877038;29;20069;-88
2023/10/11 15:29:36;;;;;;;24.03;5.83;;;;;;;19.95;100.00;101063.16;4880644;29;20054;-88
2023/10/11 15:32:07;;;;;;;17.57;5.37;;;;;;;19.89;100.00;101053.56;4937712;29;20363;-88
2023/10/11 15:41:16;;;;;;;17.83;5.97;;;;;;;19.86;100.00;101057.66;4900581;29;20046;-89
2023/10/11 15:43:52;;;;;;;17.25;5.70;;;;;;;19.73;100.00;101047.72;4932470;29;20031;-90
2023/10/11 15:46:21;;;;;;;21.02;5.40;;;;;;;19.67;100.00;101042.41;4934450;29;20087;-88
2023/10/11 15:49:40;;;;;;;18.70;5.75;;;;;;;19.77;100.00;101060.34;4937167;29;20511;-89
2023/10/11 15:52:17;;;;;;;14.43;5.40;;;;;;;19.56;100.00;101048.44;4841917;29;20129;-88
2023/10/11 15:54:45;;;;;;;13.47;5.67;;;;;;;19.57;100.00;101042.69;4853356;29;20683;-89
2023/10/11 15:57:11;;;;;;;16.35;5.13;;;;;;;19.59;100.00;101040.47;4858620;29;20515;-89
2023/10/11 15:59:37;;;;;;;12.43;5.20;;;;;;;19.59;100.00;101028.78;4854029;29;20116;-90
2023/10/11 16:02:05;;;;;;;16.63;6.00;;;;;;;19.48;100.00;101034.50;4891244;29;20048;-89